sensor_id;sensor_type;location;lat;lon;timestamp;temperature;humidity
6110;DHT22;3085;49.444;11.054;2023-06-14T00:00:46;20.10;71.60
6110;DHT22;3085;49.444;11.054;2023-06-14T00:03:14;19.90;72.30
6110;DHT22;3085;49.444;11.054;2023-06-14T00:05:43;20.00;72.70
6110;DHT22;3085;49.444;11.054;2023-06-14T00:08:11;20.10;73.00
6110;DHT22;3085;49.444;11.054;2023-06-14T00:10:38;20.10;72.50
6110;DHT22;3085;49.444;11.054;2023-06-14T00:13:08;20.10;73.10
6110;DHT22;3085;49.444;11.054;2023-06-14T00:15:35;20.20;73.20
6110;DHT22;3085;49.444;11.054;2023-06-14T00:18:03;20.10;73.60
6110;DHT22;3085;49.444;11.054;2023-06-14T00:20:32;19.90;74.20
6110;DHT22;3085;49.444;11.054;2023-06-14T00:22:59;19.80;74.50
6110;DHT22;3085;49.444;11.054;2023-06-14T00:25:26;19.80;74.70
6110;DHT22;3085;49.444;11.054;2023-06-14T00:27:53;19.70;74.70
6110;DHT22;3085;49.444;11.054;2023-06-14T00:30:22;19.80;75.00
6110;DHT22;3085;49.444;11.054;2023-06-14T00:32:49;19.80;75.00
6110;DHT22;3085;49.444;11.054;2023-06-14T00:35:16;19.60;75.50
6110;DHT22;3085;49.444;11.054;2023-06-14T00:37:43;19.60;75.60
6110;DHT22;3085;49.444;11.054;2023-06-14T00:40:10;19.60;75.70
6110;DHT22;3085;49.444;11.054;2023-06-14T00:42:37;19.70;75.90
6110;DHT22;3085;49.444;11.054;2023-06-14T00:45:04;19.70;76.30
6110;DHT22;3085;49.444;11.054;2023-06-14T00:47:33;19.60;76.90
6110;DHT22;3085;49.444;11.054;2023-06-14T00:50:01;19.70;76.90
6110;DHT22;3085;49.444;11.054;2023-06-14T00:52:28;19.70;76.50
6110;DHT22;3085;49.444;11.054;2023-06-14T00:54:55;19.70;76.50
6110;DHT22;3085;49.444;11.054;2023-06-14T00:57:22;19.60;77.30
6110;DHT22;3085;49.444;11.054;2023-06-14T00:59:49;19.50;77.50
6110;DHT22;3085;49.444;11.054;2023-06-14T01:02:17;19.70;77.90
6110;DHT22;3085;49.444;11.054;2023-06-14T01:04:47;19.50;77.70
6110;DHT22;3085;49.444;11.054;2023-06-14T01:07:20;19.40;77.90
6110;DHT22;3085;49.444;11.054;2023-06-14T01:10:01;19.20;78.30
6110;DHT22;3085;49.444;11.054;2023-06-14T01:12:37;19.00;79.00
6110;DHT22;3085;49.444;11.054;2023-06-14T01:15:06;19.20;79.30
6110;DHT22;3085;49.444;11.054;2023-06-14T01:17:34;19.20;79.00
6110;DHT22;3085;49.444;11.054;2023-06-14T01:20:03;19.10;79.00
6110;DHT22;3085;49.444;11.054;2023-06-14T01:22:49;18.60;80.00
6110;DHT22;3085;49.444;11.054;2023-06-14T01:25:17;18.60;80.40
6110;DHT22;3085;49.444;11.054;2023-06-14T01:27:47;18.70;80.60
6110;DHT22;3085;49.444;11.054;2023-06-14T01:30:15;18.90;80.70
6110;DHT22;3085;49.444;11.054;2023-06-14T01:32:42;18.60;81.00
6110;DHT22;3085;49.444;11.054;2023-06-14T01:35:10;18.60;81.10
6110;DHT22;3085;49.444;11.054;2023-06-14T01:37:38;18.40;81.50
6110;DHT22;3085;49.444;11.054;2023-06-14T01:40:09;18.50;81.60
6110;DHT22;3085;49.444;11.054;2023-06-14T01:42:38;18.60;81.90
6110;DHT22;3085;49.444;11.054;2023-06-14T01:45:06;18.60;81.90
6110;DHT22;3085;49.444;11.054;2023-06-14T01:47:33;18.50;82.70
6110;DHT22;3085;49.444;11.054;2023-06-14T01:50:01;18.60;82.20
6110;DHT22;3085;49.444;11.054;2023-06-14T01:52:28;18.40;82.70
6110;DHT22;3085;49.444;11.054;2023-06-14T01:54:55;18.20;83.10
6110;DHT22;3085;49.444;11.054;2023-06-14T01:57:24;18.30;82.90
6110;DHT22;3085;49.444;11.054;2023-06-14T01:59:52;18.40;83.10
6110;DHT22;3085;49.444;11.054;2023-06-14T02:02:19;18.40;83.20
6110;DHT22;3085;49.444;11.054;2023-06-14T02:04:45;18.40;83.40
6110;DHT22;3085;49.444;11.054;2023-06-14T02:07:13;18.40;83.20
6110;DHT22;3085;49.444;11.054;2023-06-14T02:09:40;18.40;83.30
6110;DHT22;3085;49.444;11.054;2023-06-14T02:12:07;18.40;83.50
6110;DHT22;3085;49.444;11.054;2023-06-14T02:14:36;18.40;83.60
6110;DHT22;3085;49.444;11.054;2023-06-14T02:17:04;18.30;83.70
6110;DHT22;3085;49.444;11.054;2023-06-14T02:19:31;18.40;83.70
6110;DHT22;3085;49.444;11.054;2023-06-14T02:21:59;18.40;83.40
6110;DHT22;3085;49.444;11.054;2023-06-14T02:24:26;18.50;83.60
6110;DHT22;3085;49.444;11.054;2023-06-14T02:26:53;18.50;83.50
6110;DHT22;3085;49.444;11.054;2023-06-14T02:29:20;18.50;83.70
6110;DHT22;3085;49.444;11.054;2023-06-14T02:31:48;18.20;84.50
6110;DHT22;3085;49.444;11.054;2023-06-14T02:34:15;18.20;84.60
6110;DHT22;3085;49.444;11.054;2023-06-14T02:36:43;18.20;84.40
6110;DHT22;3085;49.444;11.054;2023-06-14T02:39:10;18.40;84.50
6110;DHT22;3085;49.444;11.054;2023-06-14T02:41:37;18.20;84.70
6110;DHT22;3085;49.444;11.054;2023-06-14T02:44:04;18.00;85.00
6110;DHT22;3085;49.444;11.054;2023-06-14T02:46:31;18.10;85.30
6110;DHT22;3085;49.444;11.054;2023-06-14T02:48:59;18.00;85.60
6110;DHT22;3085;49.444;11.054;2023-06-14T02:51:26;17.80;85.80
6110;DHT22;3085;49.444;11.054;2023-06-14T02:53:53;17.50;86.70
6110;DHT22;3085;49.444;11.054;2023-06-14T02:56:20;17.60;87.20
6110;DHT22;3085;49.444;11.054;2023-06-14T02:58:48;17.80;86.80
6110;DHT22;3085;49.444;11.054;2023-06-14T03:01:16;17.70;86.90
6110;DHT22;3085;49.444;11.054;2023-06-14T03:03:43;17.60;86.90
6110;DHT22;3085;49.444;11.054;2023-06-14T03:06:11;17.70;86.60
6110;DHT22;3085;49.444;11.054;2023-06-14T03:08:39;17.70;87.00
6110;DHT22;3085;49.444;11.054;2023-06-14T03:11:07;17.60;86.80
6110;DHT22;3085;49.444;11.054;2023-06-14T03:13:34;17.60;86.70
6110;DHT22;3085;49.444;11.054;2023-06-14T03:16:01;17.50;87.10
6110;DHT22;3085;49.444;11.054;2023-06-14T03:18:29;17.40;87.70
6110;DHT22;3085;49.444;11.054;2023-06-14T03:20:56;17.40;87.40
6110;DHT22;3085;49.444;11.054;2023-06-14T03:23:27;17.20;87.70
6110;DHT22;3085;49.444;11.054;2023-06-14T03:25:54;17.30;88.10
6110;DHT22;3085;49.444;11.054;2023-06-14T03:28:21;17.00;88.40
6110;DHT22;3085;49.444;11.054;2023-06-14T03:30:48;16.90;89.00
6110;DHT22;3085;49.444;11.054;2023-06-14T03:33:15;16.90;89.20
6110;DHT22;3085;49.444;11.054;2023-06-14T03:35:42;17.60;90.10
6110;DHT22;3085;49.444;11.054;2023-06-14T03:38:10;16.90;90.00
6110;DHT22;3085;49.444;11.054;2023-06-14T03:40:38;16.90;89.80
6110;DHT22;3085;49.444;11.054;2023-06-14T03:43:05;16.90;89.90
6110;DHT22;3085;49.444;11.054;2023-06-14T03:45:31;17.00;90.20
6110;DHT22;3085;49.444;11.054;2023-06-14T03:47:58;16.90;90.40
6110;DHT22;3085;49.444;11.054;2023-06-14T03:50:26;17.00;90.10
6110;DHT22;3085;49.444;11.054;2023-06-14T03:52:53;16.90;90.40
6110;DHT22;3085;49.444;11.054;2023-06-14T03:55:20;16.70;90.50
6110;DHT22;3085;49.444;11.054;2023-06-14T03:57:48;16.80;90.70
6110;DHT22;3085;49.444;11.054;2023-06-14T04:00:16;17.00;90.60
6110;DHT22;3085;49.444;11.054;2023-06-14T04:02:43;16.90;90.90
6110;DHT22;3085;49.444;11.054;2023-06-14T04:05:10;18.30;91.40
6110;DHT22;3085;49.444;11.054;2023-06-14T04:07:37;16.90;91.00
6110;DHT22;3085;49.444;11.054;2023-06-14T04:10:06;17.60;91.30
6110;DHT22;3085;49.444;11.054;2023-06-14T04:12:34;17.00;91.10
6110;DHT22;3085;49.444;11.054;2023-06-14T04:15:03;17.00;91.00
6110;DHT22;3085;49.444;11.054;2023-06-14T04:17:31;17.20;91.30
6110;DHT22;3085;49.444;11.054;2023-06-14T04:19:59;17.00;91.30
6110;DHT22;3085;49.444;11.054;2023-06-14T04:22:26;16.90;91.40
6110;DHT22;3085;49.444;11.054;2023-06-14T04:24:54;17.00;91.40
6110;DHT22;3085;49.444;11.054;2023-06-14T04:27:22;16.90;91.50
6110;DHT22;3085;49.444;11.054;2023-06-14T04:29:51;17.10;91.40
6110;DHT22;3085;49.444;11.054;2023-06-14T04:32:24;17.00;91.60
6110;DHT22;3085;49.444;11.054;2023-06-14T04:34:52;17.00;91.80
6110;DHT22;3085;49.444;11.054;2023-06-14T04:37:19;17.00;92.00
6110;DHT22;3085;49.444;11.054;2023-06-14T04:39:47;17.20;91.90
6110;DHT22;3085;49.444;11.054;2023-06-14T04:42:14;17.00;92.10
6110;DHT22;3085;49.444;11.054;2023-06-14T04:44:42;17.20;92.00
6110;DHT22;3085;49.444;11.054;2023-06-14T04:47:09;17.70;92.30
6110;DHT22;3085;49.444;11.054;2023-06-14T04:49:39;17.30;92.00
6110;DHT22;3085;49.444;11.054;2023-06-14T04:52:06;17.20;92.20
6110;DHT22;3085;49.444;11.054;2023-06-14T04:54:35;17.20;92.30
6110;DHT22;3085;49.444;11.054;2023-06-14T04:57:04;17.10;92.40
6110;DHT22;3085;49.444;11.054;2023-06-14T04:59:31;16.80;92.80
6110;DHT22;3085;49.444;11.054;2023-06-14T05:01:59;16.70;93.20
6110;DHT22;3085;49.444;11.054;2023-06-14T05:04:26;16.70;93.40
6110;DHT22;3085;49.444;11.054;2023-06-14T05:06:54;16.80;93.60
6110;DHT22;3085;49.444;11.054;2023-06-14T05:09:22;16.70;93.80
6110;DHT22;3085;49.444;11.054;2023-06-14T05:11:49;16.70;93.90
6110;DHT22;3085;49.444;11.054;2023-06-14T05:14:16;16.80;93.80
6110;DHT22;3085;49.444;11.054;2023-06-14T05:16:43;17.00;93.90
6110;DHT22;3085;49.444;11.054;2023-06-14T05:19:10;17.20;93.90
6110;DHT22;3085;49.444;11.054;2023-06-14T05:21:36;17.40;93.90
6110;DHT22;3085;49.444;11.054;2023-06-14T05:24:05;17.40;93.90
6110;DHT22;3085;49.444;11.054;2023-06-14T05:26:32;17.40;94.00
6110;DHT22;3085;49.444;11.054;2023-06-14T05:28:59;17.50;94.20
6110;DHT22;3085;49.444;11.054;2023-06-14T05:31:28;17.40;94.60
6110;DHT22;3085;49.444;11.054;2023-06-14T05:33:55;17.50;94.80
6110;DHT22;3085;49.444;11.054;2023-06-14T05:36:22;17.50;94.70
6110;DHT22;3085;49.444;11.054;2023-06-14T05:38:48;17.40;95.10
6110;DHT22;3085;49.444;11.054;2023-06-14T05:41:17;17.40;95.30
6110;DHT22;3085;49.444;11.054;2023-06-14T05:43:48;17.20;95.60
6110;DHT22;3085;49.444;11.054;2023-06-14T05:46:15;17.20;95.90
6110;DHT22;3085;49.444;11.054;2023-06-14T05:48:47;17.30;96.20
6110;DHT22;3085;49.444;11.054;2023-06-14T05:51:14;17.30;96.30
6110;DHT22;3085;49.444;11.054;2023-06-14T05:53:44;17.30;96.30
6110;DHT22;3085;49.444;11.054;2023-06-14T05:56:11;17.30;96.70
6110;DHT22;3085;49.444;11.054;2023-06-14T05:58:39;17.40;96.50
6110;DHT22;3085;49.444;11.054;2023-06-14T06:01:06;17.60;96.50
6110;DHT22;3085;49.444;11.054;2023-06-14T06:03:33;17.40;96.90
6110;DHT22;3085;49.444;11.054;2023-06-14T06:06:00;17.60;96.90
6110;DHT22;3085;49.444;11.054;2023-06-14T06:08:28;17.70;97.10
6110;DHT22;3085;49.444;11.054;2023-06-14T06:10:55;17.70;96.80
6110;DHT22;3085;49.444;11.054;2023-06-14T06:13:22;17.90;96.90
6110;DHT22;3085;49.444;11.054;2023-06-14T06:15:50;18.00;96.80
6110;DHT22;3085;49.444;11.054;2023-06-14T06:18:17;17.90;97.00
6110;DHT22;3085;49.444;11.054;2023-06-14T06:20:44;18.10;97.00
6110;DHT22;3085;49.444;11.054;2023-06-14T06:23:12;18.10;97.20
6110;DHT22;3085;49.444;11.054;2023-06-14T06:25:39;18.00;97.00
6110;DHT22;3085;49.444;11.054;2023-06-14T06:28:06;18.10;97.00
6110;DHT22;3085;49.444;11.054;2023-06-14T06:30:33;18.10;96.90
6110;DHT22;3085;49.444;11.054;2023-06-14T06:33:03;18.20;97.00
6110;DHT22;3085;49.444;11.054;2023-06-14T06:35:29;18.10;96.90
6110;DHT22;3085;49.444;11.054;2023-06-14T06:37:58;17.90;97.00
6110;DHT22;3085;49.444;11.054;2023-06-14T06:40:25;18.10;96.90
6110;DHT22;3085;49.444;11.054;2023-06-14T06:42:52;18.10;96.90
6110;DHT22;3085;49.444;11.054;2023-06-14T06:45:20;18.30;97.10
6110;DHT22;3085;49.444;11.054;2023-06-14T06:47:46;18.50;96.80
6110;DHT22;3085;49.444;11.054;2023-06-14T06:50:14;18.70;96.70
6110;DHT22;3085;49.444;11.054;2023-06-14T06:52:41;18.80;96.60
6110;DHT22;3085;49.444;11.054;2023-06-14T06:55:08;19.00;96.50
6110;DHT22;3085;49.444;11.054;2023-06-14T06:57:36;19.00;96.20
6110;DHT22;3085;49.444;11.054;2023-06-14T07:00:04;19.00;96.30
6110;DHT22;3085;49.444;11.054;2023-06-14T07:02:33;19.00;96.10
6110;DHT22;3085;49.444;11.054;2023-06-14T07:05:00;19.00;96.10
6110;DHT22;3085;49.444;11.054;2023-06-14T07:07:28;19.00;96.00
6110;DHT22;3085;49.444;11.054;2023-06-14T07:09:55;19.20;95.80
6110;DHT22;3085;49.444;11.054;2023-06-14T07:12:23;19.10;95.50
6110;DHT22;3085;49.444;11.054;2023-06-14T07:14:50;19.30;95.60
6110;DHT22;3085;49.444;11.054;2023-06-14T07:17:17;19.40;95.60
6110;DHT22;3085;49.444;11.054;2023-06-14T07:19:43;19.50;95.50
6110;DHT22;3085;49.444;11.054;2023-06-14T07:22:10;19.40;95.10
6110;DHT22;3085;49.444;11.054;2023-06-14T07:24:39;19.50;95.10
6110;DHT22;3085;49.444;11.054;2023-06-14T07:27:06;19.80;95.30
6110;DHT22;3085;49.444;11.054;2023-06-14T07:29:33;19.80;95.20
6110;DHT22;3085;49.444;11.054;2023-06-14T07:32:00;19.90;95.10
6110;DHT22;3085;49.444;11.054;2023-06-14T07:34:27;19.80;94.90
6110;DHT22;3085;49.444;11.054;2023-06-14T07:36:53;19.80;95.00
6110;DHT22;3085;49.444;11.054;2023-06-14T07:39:21;19.80;94.50
6110;DHT22;3085;49.444;11.054;2023-06-14T07:41:49;19.90;95.00
6110;DHT22;3085;49.444;11.054;2023-06-14T07:44:15;20.00;94.50
6110;DHT22;3085;49.444;11.054;2023-06-14T07:46:43;19.90;93.50
6110;DHT22;3085;49.444;11.054;2023-06-14T07:49:11;20.00;93.50
6110;DHT22;3085;49.444;11.054;2023-06-14T07:51:38;20.10;93.80
6110;DHT22;3085;49.444;11.054;2023-06-14T07:54:05;20.20;94.00
6110;DHT22;3085;49.444;11.054;2023-06-14T07:56:34;20.30;93.40
6110;DHT22;3085;49.444;11.054;2023-06-14T07:59:02;20.20;93.00
6110;DHT22;3085;49.444;11.054;2023-06-14T08:01:29;20.40;93.40
6110;DHT22;3085;49.444;11.054;2023-06-14T08:03:56;20.50;93.40
6110;DHT22;3085;49.444;11.054;2023-06-14T08:06:22;20.50;92.80
6110;DHT22;3085;49.444;11.054;2023-06-14T08:08:49;20.60;92.70
6110;DHT22;3085;49.444;11.054;2023-06-14T08:11:16;20.80;92.70
6110;DHT22;3085;49.444;11.054;2023-06-14T08:13:43;21.00;92.50
6110;DHT22;3085;49.444;11.054;2023-06-14T08:16:11;20.90;91.90
6110;DHT22;3085;49.444;11.054;2023-06-14T08:18:37;21.10;92.10
6110;DHT22;3085;49.444;11.054;2023-06-14T08:21:04;21.10;91.70
6110;DHT22;3085;49.444;11.054;2023-06-14T08:23:32;21.10;91.00
6110;DHT22;3085;49.444;11.054;2023-06-14T08:25:59;20.90;90.60
6110;DHT22;3085;49.444;11.054;2023-06-14T08:28:27;20.90;90.80
6110;DHT22;3085;49.444;11.054;2023-06-14T08:30:53;21.00;91.20
6110;DHT22;3085;49.444;11.054;2023-06-14T08:33:22;21.10;91.00
6110;DHT22;3085;49.444;11.054;2023-06-14T08:35:49;21.20;90.80
6110;DHT22;3085;49.444;11.054;2023-06-14T08:38:16;21.20;90.80
6110;DHT22;3085;49.444;11.054;2023-06-14T08:40:43;21.00;90.70
6110;DHT22;3085;49.444;11.054;2023-06-14T08:43:11;20.80;90.50
6110;DHT22;3085;49.444;11.054;2023-06-14T08:45:38;21.00;90.60
6110;DHT22;3085;49.444;11.054;2023-06-14T08:48:06;21.30;90.90
6110;DHT22;3085;49.444;11.054;2023-06-14T08:50:36;21.50;90.50
6110;DHT22;3085;49.444;11.054;2023-06-14T08:53:03;21.40;90.00
6110;DHT22;3085;49.444;11.054;2023-06-14T08:55:30;21.70;90.10
6110;DHT22;3085;49.444;11.054;2023-06-14T08:57:58;21.60;89.20
6110;DHT22;3085;49.444;11.054;2023-06-14T09:00:26;21.40;89.00
6110;DHT22;3085;49.444;11.054;2023-06-14T09:02:53;21.50;88.90
6110;DHT22;3085;49.444;11.054;2023-06-14T09:05:23;21.50;88.40
6110;DHT22;3085;49.444;11.054;2023-06-14T09:07:53;21.70;89.20
6110;DHT22;3085;49.444;11.054;2023-06-14T09:10:22;21.80;88.70
6110;DHT22;3085;49.444;11.054;2023-06-14T09:12:51;21.80;89.20
6110;DHT22;3085;49.444;11.054;2023-06-14T09:15:18;21.60;88.70
6110;DHT22;3085;49.444;11.054;2023-06-14T09:17:45;21.90;88.40
6110;DHT22;3085;49.444;11.054;2023-06-14T09:20:12;22.00;88.30
6110;DHT22;3085;49.444;11.054;2023-06-14T09:22:43;22.10;87.90
6110;DHT22;3085;49.444;11.054;2023-06-14T09:25:12;22.90;88.10
6110;DHT22;3085;49.444;11.054;2023-06-14T09:27:40;22.40;89.20
6110;DHT22;3085;49.444;11.054;2023-06-14T09:30:09;22.40;87.80
6110;DHT22;3085;49.444;11.054;2023-06-14T09:32:37;22.50;89.10
6110;DHT22;3085;49.444;11.054;2023-06-14T09:35:06;22.40;87.50
6110;DHT22;3085;49.444;11.054;2023-06-14T09:37:33;22.60;88.40
6110;DHT22;3085;49.444;11.054;2023-06-14T09:40:01;22.50;87.00
6110;DHT22;3085;49.444;11.054;2023-06-14T09:42:31;22.40;86.80
6110;DHT22;3085;49.444;11.054;2023-06-14T09:45:02;22.40;86.60
6110;DHT22;3085;49.444;11.054;2023-06-14T09:47:29;22.20;86.80
6110;DHT22;3085;49.444;11.054;2023-06-14T09:49:55;22.10;87.70
6110;DHT22;3085;49.444;11.054;2023-06-14T09:52:22;22.30;87.90
6110;DHT22;3085;49.444;11.054;2023-06-14T09:54:49;22.20;87.20
6110;DHT22;3085;49.444;11.054;2023-06-14T09:57:17;22.20;87.00
6110;DHT22;3085;49.444;11.054;2023-06-14T09:59:52;22.60;87.80
6110;DHT22;3085;49.444;11.054;2023-06-14T10:02:24;22.20;86.60
6110;DHT22;3085;49.444;11.054;2023-06-14T10:04:56;22.00;86.60
6110;DHT22;3085;49.444;11.054;2023-06-14T10:07:26;22.00;86.80
6110;DHT22;3085;49.444;11.054;2023-06-14T10:09:57;22.40;87.10
6110;DHT22;3085;49.444;11.054;2023-06-14T10:12:24;22.60;86.40
6110;DHT22;3085;49.444;11.054;2023-06-14T10:14:53;22.60;85.60
6110;DHT22;3085;49.444;11.054;2023-06-14T10:17:27;22.70;86.40
6110;DHT22;3085;49.444;11.054;2023-06-14T10:20:16;22.70;86.80
6110;DHT22;3085;49.444;11.054;2023-06-14T10:22:47;22.60;85.40
6110;DHT22;3085;49.444;11.054;2023-06-14T10:25:28;22.60;84.90
6110;DHT22;3085;49.444;11.054;2023-06-14T10:28:14;22.80;85.70
6110;DHT22;3085;49.444;11.054;2023-06-14T10:31:05;22.80;84.50
6110;DHT22;3085;49.444;11.054;2023-06-14T10:33:33;22.80;84.10
6110;DHT22;3085;49.444;11.054;2023-06-14T10:36:26;22.70;84.20
6110;DHT22;3085;49.444;11.054;2023-06-14T10:39:01;22.80;84.80
6110;DHT22;3085;49.444;11.054;2023-06-14T10:41:29;22.90;85.00
6110;DHT22;3085;49.444;11.054;2023-06-14T10:47:01;22.80;83.10
6110;DHT22;3085;49.444;11.054;2023-06-14T10:49:40;22.70;83.40
6110;DHT22;3085;49.444;11.054;2023-06-14T10:52:15;23.00;85.10
6110;DHT22;3085;49.444;11.054;2023-06-14T10:55:02;22.80;83.80
6110;DHT22;3085;49.444;11.054;2023-06-14T10:57:31;22.80;83.80
6110;DHT22;3085;49.444;11.054;2023-06-14T10:59:59;22.90;83.60
6110;DHT22;3085;49.444;11.054;2023-06-14T11:02:48;23.00;83.80
6110;DHT22;3085;49.444;11.054;2023-06-14T11:05:23;23.00;83.40
6110;DHT22;3085;49.444;11.054;2023-06-14T11:08:02;23.10;83.60
6110;DHT22;3085;49.444;11.054;2023-06-14T11:10:37;23.20;84.20
6110;DHT22;3085;49.444;11.054;2023-06-14T11:13:04;23.40;84.30
6110;DHT22;3085;49.444;11.054;2023-06-14T11:15:32;23.40;83.40
6110;DHT22;3085;49.444;11.054;2023-06-14T11:18:02;23.50;82.00
6110;DHT22;3085;49.444;11.054;2023-06-14T11:20:32;23.40;81.60
6110;DHT22;3085;49.444;11.054;2023-06-14T11:22:59;23.30;78.30
6110;DHT22;3085;49.444;11.054;2023-06-14T11:25:28;23.30;78.30
6110;DHT22;3085;49.444;11.054;2023-06-14T11:27:58;23.20;80.00
6110;DHT22;3085;49.444;11.054;2023-06-14T11:30:25;23.20;79.20
6110;DHT22;3085;49.444;11.054;2023-06-14T11:32:53;23.10;79.60
6110;DHT22;3085;49.444;11.054;2023-06-14T11:35:23;22.80;80.10
6110;DHT22;3085;49.444;11.054;2023-06-14T11:37:52;23.00;81.30
6110;DHT22;3085;49.444;11.054;2023-06-14T11:40:24;23.20;81.00
6110;DHT22;3085;49.444;11.054;2023-06-14T11:42:58;23.10;80.60
6110;DHT22;3085;49.444;11.054;2023-06-14T11:45:25;23.00;80.30
6110;DHT22;3085;49.444;11.054;2023-06-14T11:47:54;22.80;80.50
6110;DHT22;3085;49.444;11.054;2023-06-14T11:50:23;22.90;80.80
6110;DHT22;3085;49.444;11.054;2023-06-14T11:52:53;23.10;81.30
6110;DHT22;3085;49.444;11.054;2023-06-14T11:55:21;23.00;81.20
6110;DHT22;3085;49.444;11.054;2023-06-14T11:57:48;23.10;80.30
6110;DHT22;3085;49.444;11.054;2023-06-14T12:00:16;22.90;80.00
6110;DHT22;3085;49.444;11.054;2023-06-14T12:02:51;23.00;79.80
6110;DHT22;3085;49.444;11.054;2023-06-14T12:05:20;22.90;79.90
6110;DHT22;3085;49.444;11.054;2023-06-14T12:07:49;23.00;79.90
6110;DHT22;3085;49.444;11.054;2023-06-14T12:10:19;23.10;82.10
6110;DHT22;3085;49.444;11.054;2023-06-14T12:12:45;23.20;81.30
6110;DHT22;3085;49.444;11.054;2023-06-14T12:15:12;23.40;83.10
6110;DHT22;3085;49.444;11.054;2023-06-14T12:17:39;23.40;81.60
6110;DHT22;3085;49.444;11.054;2023-06-14T12:20:09;23.60;82.40
6110;DHT22;3085;49.444;11.054;2023-06-14T12:22:39;23.70;81.60
6110;DHT22;3085;49.444;11.054;2023-06-14T12:25:08;23.80;80.10
6110;DHT22;3085;49.444;11.054;2023-06-14T12:27:35;23.90;78.10
6110;DHT22;3085;49.444;11.054;2023-06-14T12:30:02;23.90;78.40
6110;DHT22;3085;49.444;11.054;2023-06-14T12:32:30;23.60;75.20
6110;DHT22;3085;49.444;11.054;2023-06-14T12:34:57;23.70;75.30
6110;DHT22;3085;49.444;11.054;2023-06-14T12:37:24;23.80;77.60
6110;DHT22;3085;49.444;11.054;2023-06-14T12:39:50;23.80;77.20
6110;DHT22;3085;49.444;11.054;2023-06-14T12:42:19;23.90;78.40
6110;DHT22;3085;49.444;11.054;2023-06-14T12:44:45;23.90;76.00
6110;DHT22;3085;49.444;11.054;2023-06-14T12:47:12;23.90;76.10
6110;DHT22;3085;49.444;11.054;2023-06-14T12:49:39;24.00;78.30
6110;DHT22;3085;49.444;11.054;2023-06-14T12:52:08;23.80;75.00
6110;DHT22;3085;49.444;11.054;2023-06-14T12:54:35;23.80;74.90
6110;DHT22;3085;49.444;11.054;2023-06-14T12:57:02;23.70;75.70
6110;DHT22;3085;49.444;11.054;2023-06-14T12:59:30;23.70;75.40
6110;DHT22;3085;49.444;11.054;2023-06-14T13:02:02;23.60;75.40
6110;DHT22;3085;49.444;11.054;2023-06-14T13:04:36;23.60;75.20
6110;DHT22;3085;49.444;11.054;2023-06-14T13:07:03;23.60;75.50
6110;DHT22;3085;49.444;11.054;2023-06-14T13:09:30;23.60;75.70
6110;DHT22;3085;49.444;11.054;2023-06-14T13:11:57;23.40;74.40
6110;DHT22;3085;49.444;11.054;2023-06-14T13:14:23;23.50;75.80
6110;DHT22;3085;49.444;11.054;2023-06-14T13:16:52;23.40;74.60
6110;DHT22;3085;49.444;11.054;2023-06-14T13:19:20;23.60;75.20
6110;DHT22;3085;49.444;11.054;2023-06-14T13:21:48;23.60;74.90
6110;DHT22;3085;49.444;11.054;2023-06-14T13:24:14;23.30;72.40
6110;DHT22;3085;49.444;11.054;2023-06-14T13:26:42;23.00;72.30
6110;DHT22;3085;49.444;11.054;2023-06-14T13:29:09;23.10;73.70
6110;DHT22;3085;49.444;11.054;2023-06-14T13:31:36;23.20;75.60
6110;DHT22;3085;49.444;11.054;2023-06-14T13:34:04;23.40;76.70
6110;DHT22;3085;49.444;11.054;2023-06-14T13:36:31;23.50;75.10
6110;DHT22;3085;49.444;11.054;2023-06-14T13:38:57;23.60;75.60
6110;DHT22;3085;49.444;11.054;2023-06-14T13:41:26;23.50;75.60
6110;DHT22;3085;49.444;11.054;2023-06-14T13:43:57;23.80;76.10
6110;DHT22;3085;49.444;11.054;2023-06-14T13:46:24;23.80;75.80
6110;DHT22;3085;49.444;11.054;2023-06-14T13:48:51;23.90;74.60
6110;DHT22;3085;49.444;11.054;2023-06-14T13:51:19;24.00;75.10
6110;DHT22;3085;49.444;11.054;2023-06-14T13:53:46;24.00;74.40
6110;DHT22;3085;49.444;11.054;2023-06-14T13:56:13;24.20;75.60
6110;DHT22;3085;49.444;11.054;2023-06-14T13:58:40;24.20;74.40
6110;DHT22;3085;49.444;11.054;2023-06-14T14:01:08;24.00;73.10
6110;DHT22;3085;49.444;11.054;2023-06-14T14:03:35;24.20;73.70
6110;DHT22;3085;49.444;11.054;2023-06-14T14:06:02;25.90;76.10
6110;DHT22;3085;49.444;11.054;2023-06-14T14:08:30;24.20;74.80
6110;DHT22;3085;49.444;11.054;2023-06-14T14:10:58;24.20;75.40
6110;DHT22;3085;49.444;11.054;2023-06-14T14:13:25;24.00;72.90
6110;DHT22;3085;49.444;11.054;2023-06-14T14:15:51;24.00;73.50
6110;DHT22;3085;49.444;11.054;2023-06-14T14:18:19;24.00;72.80
6110;DHT22;3085;49.444;11.054;2023-06-14T14:20:46;23.90;73.70
6110;DHT22;3085;49.444;11.054;2023-06-14T14:23:13;23.80;74.00
6110;DHT22;3085;49.444;11.054;2023-06-14T14:25:42;23.90;73.30
6110;DHT22;3085;49.444;11.054;2023-06-14T14:28:08;24.00;75.80
6110;DHT22;3085;49.444;11.054;2023-06-14T14:30:36;24.20;76.40
6110;DHT22;3085;49.444;11.054;2023-06-14T14:33:05;24.30;77.10
6110;DHT22;3085;49.444;11.054;2023-06-14T14:35:32;24.10;74.20
6110;DHT22;3085;49.444;11.054;2023-06-14T14:37:58;24.10;73.80
6110;DHT22;3085;49.444;11.054;2023-06-14T14:40:26;24.20;74.30
6110;DHT22;3085;49.444;11.054;2023-06-14T14:42:57;24.10;73.10
6110;DHT22;3085;49.444;11.054;2023-06-14T14:45:24;24.10;72.70
6110;DHT22;3085;49.444;11.054;2023-06-14T14:47:51;24.10;73.30
6110;DHT22;3085;49.444;11.054;2023-06-14T14:50:18;24.00;72.60
6110;DHT22;3085;49.444;11.054;2023-06-14T14:52:50;24.20;74.30
6110;DHT22;3085;49.444;11.054;2023-06-14T14:55:16;22.80;73.00
6110;DHT22;3085;49.444;11.054;2023-06-14T14:57:45;24.20;73.30
6110;DHT22;3085;49.444;11.054;2023-06-14T15:00:14;24.20;74.40
6110;DHT22;3085;49.444;11.054;2023-06-14T15:02:40;23.90;72.70
6110;DHT22;3085;49.444;11.054;2023-06-14T15:05:08;24.10;74.30
6110;DHT22;3085;49.444;11.054;2023-06-14T15:07:34;24.30;73.80
6110;DHT22;3085;49.444;11.054;2023-06-14T15:10:02;24.40;72.40
6110;DHT22;3085;49.444;11.054;2023-06-14T15:12:30;24.80;73.30
6110;DHT22;3085;49.444;11.054;2023-06-14T15:14:56;25.00;71.70
6110;DHT22;3085;49.444;11.054;2023-06-14T15:17:25;25.10;69.90
6110;DHT22;3085;49.444;11.054;2023-06-14T15:19:52;25.40;71.40
6110;DHT22;3085;49.444;11.054;2023-06-14T15:22:19;25.40;71.70
6110;DHT22;3085;49.444;11.054;2023-06-14T15:24:46;25.40;72.10
6110;DHT22;3085;49.444;11.054;2023-06-14T15:27:13;25.40;70.80
6110;DHT22;3085;49.444;11.054;2023-06-14T15:29:41;25.70;71.40
6110;DHT22;3085;49.444;11.054;2023-06-14T15:32:09;25.60;71.90
6110;DHT22;3085;49.444;11.054;2023-06-14T15:34:39;25.70;72.00
6110;DHT22;3085;49.444;11.054;2023-06-14T15:37:07;25.40;68.60
6110;DHT22;3085;49.444;11.054;2023-06-14T15:39:34;25.40;68.60
6110;DHT22;3085;49.444;11.054;2023-06-14T15:42:02;25.20;68.20
6110;DHT22;3085;49.444;11.054;2023-06-14T15:44:29;25.40;69.20
6110;DHT22;3085;49.444;11.054;2023-06-14T15:46:57;26.70;71.60
6110;DHT22;3085;49.444;11.054;2023-06-14T15:49:23;25.40;70.00
6110;DHT22;3085;49.444;11.054;2023-06-14T15:51:55;25.30;70.20
6110;DHT22;3085;49.444;11.054;2023-06-14T15:54:22;25.30;70.30